Oriana — ZCDU9 — position and weather

sailwx.info

Track history (hours):
 
Tides and Currents Weather Stations Pressure Air Temp Water Temp Dewpoint Dewpoint Depression Visibility Wind Speed Wind Dir Waves Ship Positions

Oriana (Bermuda)

Last reported at 2017-Sep-21 17:00 UTC. Time now 2017-Sep-22 06:16 UTC.
Position N 46°12' W 006°48'.

Length 261 m; beam 32.2 m; draft 8.2 m.

Type: Ship. MMSI: 310529000.

Wind from 300 at 10 knots

Barometer 1021.4 mb
Air temperature 16.5 ° C
Visibility: greater than 10.8 NM
Dewpoint 8.7 ° C
Water temperature 17.0 ° C

Date/timePositionNaut miles runAvg speedWind from/ knotsBaromVisibWave heightAir tempDewpointWater temp
2017-Sep-21 17:00N 46°12' W 006°48'10917.8 300 / 101021.410.8 16.5 8.717.0
2017-Sep-21 10:53N 47°52' W 005°47'2117.6
2017-Sep-21 09:41N 48°12' W 005°37'318.1
2017-Sep-21 09:30N 48°16' W 005°35'918.3
2017-Sep-21 09:01N 48°24' W 005°30'1019.0
2017-Sep-21 08:31N 48°32' W 005°23'918.3
2017-Sep-21 08:01N 48°39' W 005°14'917.5
2017-Sep-21 07:31N 48°45' W 005°04'816.4
2017-Sep-21 07:01N 48°50' W 004°55'815.4
2017-Sep-21 06:30N 48°56' W 004°46'713.4
2017-Sep-21 06:00N 48°54' W 004°36'3115.1 290 / 191014.310.8 14.013.114.0
2017-Sep-21 03:54N 49°19' W 004°07'1013.9
2017-Sep-21 03:10N 49°27' W 003°57'414.8
2017-Sep-21 02:52N 49°29' W 003°51'615.1
2017-Sep-21 02:30N 49°33' W 003°44'815.9
2017-Sep-21 02:00N 49°38' W 003°35'816.7
2017-Sep-21 01:30N 49°44' W 003°26'817.0
2017-Sep-21 01:00N 49°49' W 003°15'917.3
2017-Sep-21 00:29N 49°54' W 003°04'816.9
2017-Sep-21 00:00N 49°58' W 002°53'816.8
2017-Sep-20 23:30N 50°01' W 002°41'2614.8
2017-Sep-20 21:44N 50°12' W 002°04'313.0
2017-Sep-20 21:31N 50°13' W 001°60'713.3
2017-Sep-20 21:00N 50°17' W 001°50'713.1
2017-Sep-20 20:30N 50°20' W 001°41'1113.3
2017-Sep-20 19:40N 50°25' W 001°26'213.2
2017-Sep-20 19:30N 50°26' W 001°23'713.1
2017-Sep-20 18:59N 50°29' W 001°14'612.9
2017-Sep-20 18:30N 50°32' W 001°05'713.2
2017-Sep-20 18:00N 50°38' W 000°59'8482.5
2017-Sep-20 18:00N 50°30' W 001°00'1326.9 180 / 261016.810.8 16.010.316.0
2017-Sep-20 17:30N 50°43' W 001°01'816.3
2017-Sep-20 17:00N 50°46' W 001°13'510.1
2017-Sep-20 16:31N 50°49' W 001°18'510.1
2017-Sep-20 16:00N 50°53' W 001°24'2 3.2
2017-Sep-20 15:28N 50°54' W 001°26'0 0.0
2017-Sep-20 14:55N 50°54' W 001°26'0 0.0
2017-Sep-20 13:58N 50°54' W 001°26'0 0.0
2017-Sep-20 13:29N 50°54' W 001°26'0 0.0
2017-Sep-20 12:59N 50°54' W 001°26'0 0.0
2017-Sep-20 12:28N 50°54' W 001°26'0 0.0
2017-Sep-20 11:59N 50°54' W 001°26'0 0.0
2017-Sep-20 11:28N 50°54' W 001°26'0 0.0
2017-Sep-20 10:58N 50°54' W 001°26'0 0.0
2017-Sep-20 10:25N 50°54' W 001°26'0 0.0
2017-Sep-20 09:58N 50°54' W 001°26'0 0.0
2017-Sep-20 09:29N 50°54' W 001°26'0 0.0
2017-Sep-20 08:55N 50°54' W 001°26'0 0.0
2017-Sep-20 08:29N 50°54' W 001°26'0 0.0
2017-Sep-20 07:56N 50°54' W 001°26'0 0.0
2017-Sep-20 07:28N 50°54' W 001°26'0 0.0
2017-Sep-20 06:56N 50°54' W 001°26'0 0.0
2017-Sep-20 06:28N 50°54' W 001°26'0 0.0
2017-Sep-20 05:58N 50°54' W 001°26'0 0.0
2017-Sep-20 05:29N 50°54' W 001°26'0 0.3
2017-Sep-20 05:00N 50°54' W 001°26'5 9.1
2017-Sep-20 04:30N 50°51' W 001°20'5 9.6
2017-Sep-20 04:01N 50°46' W 001°20'815.3
2017-Sep-20 03:30N 50°43' W 001°31'815.3
2017-Sep-20 03:00N 50°37' W 001°39'816.2
2017-Sep-20 02:30N 50°30' W 001°45'4414.3
2017-Sep-19 23:26N 49°56' W 002°29'715.8
2017-Sep-19 23:00N 49°54' W 002°39'816.0
2017-Sep-19 22:30N 49°52' W 002°51'815.7
2017-Sep-19 22:00N 49°47' W 003°01'815.8
2017-Sep-19 21:30N 49°42' W 003°10'815.9
2017-Sep-19 21:00N 49°37' W 003°20'816.2
2017-Sep-19 20:30N 49°33' W 003°30'916.2
2017-Sep-19 19:57N 49°27' W 003°41'916.2
2017-Sep-19 19:26N 49°22' W 003°51'1616.5
2017-Sep-19 18:29N 49°12' W 004°10'1016.8
2017-Sep-19 17:55N 49°07' W 004°22'817.1
2017-Sep-19 17:29N 49°02' W 004°31'917.3
2017-Sep-19 16:58N 48°57' W 004°42'817.4
2017-Sep-19 16:30N 48°51' W 004°51'917.6
2017-Sep-19 16:00N 48°45' W 005°01'918.1
2017-Sep-19 15:30N 48°39' W 005°11'1019.2
2017-Sep-19 15:00N 48°33' W 005°21'1019.5
2017-Sep-19 14:30N 48°24' W 005°29'1019.3
2017-Sep-19 13:58N 48°15' W 005°37'53118.7
2017-Sep-18 09:38N 39°57' W 009°52'719.0
2017-Sep-18 09:17N 39°50' W 009°52'1718.8
2017-Sep-18 08:24N 39°34' W 009°52'818.8
2017-Sep-18 07:58N 39°26' W 009°52'918.8
2017-Sep-18 07:30N 39°17' W 009°52'1019.2
2017-Sep-18 07:00N 39°08' W 009°53'919.0
2017-Sep-18 06:30N 38°58' W 009°53'919.0
2017-Sep-18 06:00N 38°49' W 009°53'918.9
2017-Sep-18 05:30N 38°39' W 009°52'918.6
2017-Sep-18 05:00N 38°30' W 009°49'1019.1
2017-Sep-18 04:30N 38°21' W 009°46'1019.3
2017-Sep-18 04:00N 38°12' W 009°42'918.6
2017-Sep-18 03:30N 38°03' W 009°40'1019.1
2017-Sep-18 03:00N 37°53' W 009°38'918.9
2017-Sep-18 02:31N 37°44' W 009°35'918.6
2017-Sep-18 02:01N 37°35' W 009°33'918.8
2017-Sep-18 01:31N 37°26' W 009°31'1019.2
2017-Sep-18 01:01N 37°16' W 009°28'1119.0
2017-Sep-18 00:26N 37°05' W 009°24'819.0
2017-Sep-18 00:00N 36°57' W 009°22'4418.0
2017-Sep-17 21:34N 36°36' W 008°35'119.0
2017-Sep-17 21:30N 36°35' W 008°33'1919.4
2017-Sep-17 20:30N 36°28' W 008°11'1019.5
2017-Sep-17 20:00N 36°25' W 007°59'919.3
2017-Sep-17 19:31N 36°22' W 007°48'1019.5
2017-Sep-17 19:00N 36°19' W 007°37'1019.1
2017-Sep-17 18:30N 36°17' W 007°25'1018.8
2017-Sep-17 17:59N 36°15' W 007°13'1817.9
2017-Sep-17 17:00N 36°06' W 006°54'6417.7 250 / 171018.810.8 21.013.223.0
2017-Sep-17 13:22N 35°57' W 005°35'615.3
2017-Sep-17 13:00N 35°60' W 005°29'714.5
2017-Sep-17 12:31N 36°05' W 005°24'4 7.3
2017-Sep-17 12:00N 36°09' W 005°22'0 0.1
2017-Sep-17 11:30N 36°09' W 005°22'0 0.0
2017-Sep-17 10:57N 36°09' W 005°22'0 0.0
2017-Sep-17 10:30N 36°09' W 005°22'0 0.0
2017-Sep-17 10:00N 36°09' W 005°22'0 0.0
2017-Sep-17 09:30N 36°09' W 005°22'0 0.0
2017-Sep-17 08:59N 36°09' W 005°22'0 0.0
2017-Sep-17 06:04N 36°09' W 005°22'0 0.0
2017-Sep-17 05:58N 36°09' W 005°22'0 0.3
2017-Sep-17 05:30N 36°09' W 005°22'1 1.5
2017-Sep-17 05:00N 36°08' W 005°22'510.6
2017-Sep-17 04:30N 36°04' W 005°18'20117.4
2017-Sep-16 17:00N 36°36' W 001°12'22520.5 250 / 221012.610.8 24.018.523.0
2017-Sep-16 06:00N 37°42' E 003°18'22922.2 350 / 161009.610.8 24.519.125.0
2017-Sep-15 19:38N 38°34' E 008°02'421.3
2017-Sep-15 19:28N 38°35' E 008°06'1021.0
2017-Sep-15 19:00N 38°37' E 008°19'1121.5
2017-Sep-15 18:29N 38°40' E 008°32'1121.9
2017-Sep-15 18:00N 38°45' E 008°45'1122.1
2017-Sep-15 17:30N 38°49' E 008°58'1121.4
2017-Sep-15 17:00N 38°58' E 009°05'6444.9
2017-Sep-15 17:00N 38°54' E 009°00'1530.7 140 / 151010.010.8 24.020.225.0
2017-Sep-15 16:30N 39°08' E 009°08'5 9.3
2017-Sep-15 16:00N 39°12' E 009°07'0 0.8
2017-Sep-15 15:30N 39°13' E 009°06'0 0.0
2017-Sep-15 15:00N 39°13' E 009°06'0 0.0
2017-Sep-15 14:30N 39°13' E 009°06'0 0.0
2017-Sep-15 14:00N 39°13' E 009°06'0 0.0
2017-Sep-15 13:30N 39°13' E 009°06'0 0.0
2017-Sep-15 13:00N 39°13' E 009°06'0 0.0
2017-Sep-15 12:30N 39°13' E 009°06'0 0.0
2017-Sep-15 12:00N 39°13' E 009°06'0 0.0
2017-Sep-15 11:30N 39°13' E 009°06'0 0.0
2017-Sep-15 11:00N 39°13' E 009°06'0 0.0
2017-Sep-15 10:30N 39°13' E 009°06'0 0.0
2017-Sep-15 10:00N 39°13' E 009°06'0 0.0
2017-Sep-15 09:30N 39°13' E 009°06'0 0.0
2017-Sep-15 09:00N 39°13' E 009°06'0 0.0
2017-Sep-15 08:30N 39°13' E 009°06'0 0.0
2017-Sep-15 08:00N 39°13' E 009°06'0 0.0
2017-Sep-15 07:30N 39°13' E 009°06'0 0.0
2017-Sep-15 07:00N 39°13' E 009°06'0 0.0
2017-Sep-15 06:30N 39°13' E 009°06'0 0.0
2017-Sep-15 06:00N 39°13' E 009°06'0 0.2
2017-Sep-15 05:30N 39°13' E 009°06'3 5.2
2017-Sep-15 04:59N 39°10' E 009°06'5 9.9
2017-Sep-15 04:30N 39°06' E 009°09'612.7
2017-Sep-15 04:00N 39°03' E 009°17'714.7
2017-Sep-15 03:30N 38°59' E 009°24'610.9
2017-Sep-15 02:58N 38°55' E 009°31'510.7
2017-Sep-15 02:30N 38°54' E 009°37'611.0
2017-Sep-15 02:00N 38°53' E 009°44'511.1
2017-Sep-15 01:30N 38°52' E 009°51'611.1
2017-Sep-15 01:00N 38°51' E 009°58'4259.0
2017-Sep-15 01:00N 38°48' E 010°00'5 9.2 190 / 111014.010.8 23.018.325.0
2017-Sep-15 00:30N 38°50' E 010°05'711.4
2017-Sep-14 23:54N 38°49' E 010°14'611.1
2017-Sep-14 23:24N 38°48' E 010°21'513.0
2017-Sep-14 23:00N 38°47' E 010°27'9816.3
2017-Sep-14 17:01N 38°31' E 012°31'115.9
2017-Sep-14 16:57N 38°31' E 012°32'716.0
2017-Sep-14 16:30N 38°30' E 012°41'816.0
2017-Sep-14 16:00N 38°28' E 012°51'5352.0
2017-Sep-14 16:00N 38°24' E 012°48'1122.5 120 / 51016.610.8 24.017.625.0
2017-Sep-14 15:30N 38°27' E 013°01'816.2
2017-Sep-14 15:00N 38°27' E 013°12'816.1
2017-Sep-14 14:30N 38°27' E 013°22'816.2
2017-Sep-14 14:00N 38°26' E 013°32'816.2
2017-Sep-14 13:30N 38°24' E 013°42'816.3
2017-Sep-14 13:00N 38°22' E 013°52'816.5
2017-Sep-14 12:30N 38°21' E 014°03'916.7
2017-Sep-14 11:59N 38°20' E 014°14'816.5
2017-Sep-14 11:30N 38°19' E 014°24'816.1
2017-Sep-14 11:00N 38°18' E 014°34'816.6
2017-Sep-14 10:30N 38°18' E 014°44'816.2
2017-Sep-14 10:00N 38°18' E 014°55'815.9
2017-Sep-14 09:30N 38°19' E 015°05'816.4
2017-Sep-14 09:00N 38°20' E 015°15'816.0
2017-Sep-14 08:30N 38°21' E 015°25'815.5
2017-Sep-14 08:00N 38°20' E 015°35'714.3
2017-Sep-14 07:30N 38°17' E 015°43'713.8
2017-Sep-14 07:01N 38°12' E 015°37'713.7
2017-Sep-14 06:30N 38°06' E 015°37'714.4
2017-Sep-14 06:00N 37°58' E 015°37'714.9
2017-Sep-14 05:30N 37°52' E 015°42'612.3
2017-Sep-14 05:00N 37°48' E 015°48'6104.5 270 / 61019.310.8 23.016.522.0
2017-Sep-14 04:56N 37°52' E 015°53'20415.8
2017-Sep-13 16:00N 38°00' E 020°12'110 4.8 320 / 161019.510.8 25.018.825.0
2017-Sep-12 17:00N 39°48' E 019°42'185 7.7 190 / 51016.810.8 25.017.024.0
2017-Sep-11 17:00N 41°48' E 016°36'   140 / 30998.610.8 22.015.324.0
Track history (hours):
 
Tides and Currents Weather Stations Pressure Air Temp Water Temp Dewpoint Dewpoint Depression Visibility Wind Speed Wind Dir Waves Ship Positions

Oriana (Bermuda)

Last reported at 2017-Sep-21 17:00 UTC. Time now 2017-Sep-22 06:16 UTC.
Position N 46°12' W 006°48'.

Length 261 m; beam 32.2 m; draft 8.2 m.

Type: Ship. MMSI: 310529000.

Wind from 300 at 10 knots

Barometer 1021.4 mb
Air temperature 16.5 ° C
Visibility: greater than 10.8 NM
Dewpoint 8.7 ° C
Water temperature 17.0 ° C

Date/timePositionNaut miles runAvg speedWind from/ knotsBaromVisibWave heightAir tempDewpointWater temp
2017-Sep-21 17:00N 46°12' W 006°48'10917.8 300 / 101021.410.8 16.5 8.717.0
2017-Sep-21 10:53N 47°52' W 005°47'2117.6
2017-Sep-21 09:41N 48°12' W 005°37'318.1
2017-Sep-21 09:30N 48°16' W 005°35'918.3
2017-Sep-21 09:01N 48°24' W 005°30'1019.0
2017-Sep-21 08:31N 48°32' W 005°23'918.3
2017-Sep-21 08:01N 48°39' W 005°14'917.5
2017-Sep-21 07:31N 48°45' W 005°04'816.4
2017-Sep-21 07:01N 48°50' W 004°55'815.4
2017-Sep-21 06:30N 48°56' W 004°46'713.4
2017-Sep-21 06:00N 48°54' W 004°36'3115.1 290 / 191014.310.8 14.013.114.0
2017-Sep-21 03:54N 49°19' W 004°07'1013.9
2017-Sep-21 03:10N 49°27' W 003°57'414.8
2017-Sep-21 02:52N 49°29' W 003°51'615.1
2017-Sep-21 02:30N 49°33' W 003°44'815.9
2017-Sep-21 02:00N 49°38' W 003°35'816.7
2017-Sep-21 01:30N 49°44' W 003°26'817.0
2017-Sep-21 01:00N 49°49' W 003°15'917.3
2017-Sep-21 00:29N 49°54' W 003°04'816.9
2017-Sep-21 00:00N 49°58' W 002°53'816.8
2017-Sep-20 23:30N 50°01' W 002°41'2614.8
2017-Sep-20 21:44N 50°12' W 002°04'313.0
2017-Sep-20 21:31N 50°13' W 001°60'713.3
2017-Sep-20 21:00N 50°17' W 001°50'713.1
2017-Sep-20 20:30N 50°20' W 001°41'1113.3
2017-Sep-20 19:40N 50°25' W 001°26'213.2
2017-Sep-20 19:30N 50°26' W 001°23'713.1
2017-Sep-20 18:59N 50°29' W 001°14'612.9
2017-Sep-20 18:30N 50°32' W 001°05'713.2
2017-Sep-20 18:00N 50°38' W 000°59'8482.5
2017-Sep-20 18:00N 50°30' W 001°00'1326.9 180 / 261016.810.8 16.010.316.0
2017-Sep-20 17:30N 50°43' W 001°01'816.3
2017-Sep-20 17:00N 50°46' W 001°13'510.1
2017-Sep-20 16:31N 50°49' W 001°18'510.1
2017-Sep-20 16:00N 50°53' W 001°24'2 3.2
2017-Sep-20 15:28N 50°54' W 001°26'0 0.0
2017-Sep-20 14:55N 50°54' W 001°26'0 0.0
2017-Sep-20 13:58N 50°54' W 001°26'0 0.0
2017-Sep-20 13:29N 50°54' W 001°26'0 0.0
2017-Sep-20 12:59N 50°54' W 001°26'0 0.0
2017-Sep-20 12:28N 50°54' W 001°26'0 0.0
2017-Sep-20 11:59N 50°54' W 001°26'0 0.0
2017-Sep-20 11:28N 50°54' W 001°26'0 0.0
2017-Sep-20 10:58N 50°54' W 001°26'0 0.0
2017-Sep-20 10:25N 50°54' W 001°26'0 0.0
2017-Sep-20 09:58N 50°54' W 001°26'0 0.0
2017-Sep-20 09:29N 50°54' W 001°26'0 0.0
2017-Sep-20 08:55N 50°54' W 001°26'0 0.0
2017-Sep-20 08:29N 50°54' W 001°26'0 0.0
2017-Sep-20 07:56N 50°54' W 001°26'0 0.0
2017-Sep-20 07:28N 50°54' W 001°26'0 0.0
2017-Sep-20 06:56N 50°54' W 001°26'0 0.0
2017-Sep-20 06:28N 50°54' W 001°26'0 0.0
2017-Sep-20 05:58N 50°54' W 001°26'0 0.0
2017-Sep-20 05:29N 50°54' W 001°26'0 0.3
2017-Sep-20 05:00N 50°54' W 001°26'5 9.1
2017-Sep-20 04:30N 50°51' W 001°20'5 9.6
2017-Sep-20 04:01N 50°46' W 001°20'815.3
2017-Sep-20 03:30N 50°43' W 001°31'815.3
2017-Sep-20 03:00N 50°37' W 001°39'816.2
2017-Sep-20 02:30N 50°30' W 001°45'4414.3
2017-Sep-19 23:26N 49°56' W 002°29'715.8
2017-Sep-19 23:00N 49°54' W 002°39'816.0
2017-Sep-19 22:30N 49°52' W 002°51'815.7
2017-Sep-19 22:00N 49°47' W 003°01'815.8
2017-Sep-19 21:30N 49°42' W 003°10'815.9
2017-Sep-19 21:00N 49°37' W 003°20'816.2
2017-Sep-19 20:30N 49°33' W 003°30'916.2
2017-Sep-19 19:57N 49°27' W 003°41'916.2
2017-Sep-19 19:26N 49°22' W 003°51'1616.5
2017-Sep-19 18:29N 49°12' W 004°10'1016.8
2017-Sep-19 17:55N 49°07' W 004°22'817.1
2017-Sep-19 17:29N 49°02' W 004°31'917.3
2017-Sep-19 16:58N 48°57' W 004°42'817.4
2017-Sep-19 16:30N 48°51' W 004°51'917.6
2017-Sep-19 16:00N 48°45' W 005°01'918.1
2017-Sep-19 15:30N 48°39' W 005°11'1019.2
2017-Sep-19 15:00N 48°33' W 005°21'1019.5
2017-Sep-19 14:30N 48°24' W 005°29'1019.3
2017-Sep-19 13:58N 48°15' W 005°37'53118.7
2017-Sep-18 09:38N 39°57' W 009°52'719.0
2017-Sep-18 09:17N 39°50' W 009°52'1718.8
2017-Sep-18 08:24N 39°34' W 009°52'818.8
2017-Sep-18 07:58N 39°26' W 009°52'918.8
2017-Sep-18 07:30N 39°17' W 009°52'1019.2
2017-Sep-18 07:00N 39°08' W 009°53'919.0
2017-Sep-18 06:30N 38°58' W 009°53'919.0
2017-Sep-18 06:00N 38°49' W 009°53'918.9
2017-Sep-18 05:30N 38°39' W 009°52'918.6
2017-Sep-18 05:00N 38°30' W 009°49'1019.1
2017-Sep-18 04:30N 38°21' W 009°46'1019.3
2017-Sep-18 04:00N 38°12' W 009°42'918.6
2017-Sep-18 03:30N 38°03' W 009°40'1019.1
2017-Sep-18 03:00N 37°53' W 009°38'918.9
2017-Sep-18 02:31N 37°44' W 009°35'918.6
2017-Sep-18 02:01N 37°35' W 009°33'918.8
2017-Sep-18 01:31N 37°26' W 009°31'1019.2
2017-Sep-18 01:01N 37°16' W 009°28'1119.0
2017-Sep-18 00:26N 37°05' W 009°24'819.0
2017-Sep-18 00:00N 36°57' W 009°22'4418.0
2017-Sep-17 21:34N 36°36' W 008°35'119.0
2017-Sep-17 21:30N 36°35' W 008°33'1919.4
2017-Sep-17 20:30N 36°28' W 008°11'1019.5
2017-Sep-17 20:00N 36°25' W 007°59'919.3
2017-Sep-17 19:31N 36°22' W 007°48'1019.5
2017-Sep-17 19:00N 36°19' W 007°37'1019.1
2017-Sep-17 18:30N 36°17' W 007°25'1018.8
2017-Sep-17 17:59N 36°15' W 007°13'1817.9
2017-Sep-17 17:00N 36°06' W 006°54'6417.7 250 / 171018.810.8 21.013.223.0
2017-Sep-17 13:22N 35°57' W 005°35'615.3
2017-Sep-17 13:00N 35°60' W 005°29'714.5
2017-Sep-17 12:31N 36°05' W 005°24'4 7.3
2017-Sep-17 12:00N 36°09' W 005°22'0 0.1
2017-Sep-17 11:30N 36°09' W 005°22'0 0.0
2017-Sep-17 10:57N 36°09' W 005°22'0 0.0
2017-Sep-17 10:30N 36°09' W 005°22'0 0.0
2017-Sep-17 10:00N 36°09' W 005°22'0 0.0
2017-Sep-17 09:30N 36°09' W 005°22'0 0.0
2017-Sep-17 08:59N 36°09' W 005°22'0 0.0
2017-Sep-17 06:04N 36°09' W 005°22'0 0.0
2017-Sep-17 05:58N 36°09' W 005°22'0 0.3
2017-Sep-17 05:30N 36°09' W 005°22'1 1.5
2017-Sep-17 05:00N 36°08' W 005°22'510.6
2017-Sep-17 04:30N 36°04' W 005°18'20117.4
2017-Sep-16 17:00N 36°36' W 001°12'22520.5 250 / 221012.610.8 24.018.523.0
2017-Sep-16 06:00N 37°42' E 003°18'22922.2 350 / 161009.610.8 24.519.125.0
2017-Sep-15 19:38N 38°34' E 008°02'421.3
2017-Sep-15 19:28N 38°35' E 008°06'1021.0
2017-Sep-15 19:00N 38°37' E 008°19'1121.5
2017-Sep-15 18:29N 38°40' E 008°32'1121.9
2017-Sep-15 18:00N 38°45' E 008°45'1122.1
2017-Sep-15 17:30N 38°49' E 008°58'1121.4
2017-Sep-15 17:00N 38°58' E 009°05'6444.9
2017-Sep-15 17:00N 38°54' E 009°00'1530.7 140 / 151010.010.8 24.020.225.0
2017-Sep-15 16:30N 39°08' E 009°08'5 9.3
2017-Sep-15 16:00N 39°12' E 009°07'0 0.8
2017-Sep-15 15:30N 39°13' E 009°06'0 0.0
2017-Sep-15 15:00N 39°13' E 009°06'0 0.0
2017-Sep-15 14:30N 39°13' E 009°06'0 0.0
2017-Sep-15 14:00N 39°13' E 009°06'0 0.0
2017-Sep-15 13:30N 39°13' E 009°06'0 0.0
2017-Sep-15 13:00N 39°13' E 009°06'0 0.0
2017-Sep-15 12:30N 39°13' E 009°06'0 0.0
2017-Sep-15 12:00N 39°13' E 009°06'0 0.0
2017-Sep-15 11:30N 39°13' E 009°06'0 0.0
2017-Sep-15 11:00N 39°13' E 009°06'0 0.0
2017-Sep-15 10:30N 39°13' E 009°06'0 0.0
2017-Sep-15 10:00N 39°13' E 009°06'0 0.0
2017-Sep-15 09:30N 39°13' E 009°06'0 0.0
2017-Sep-15 09:00N 39°13' E 009°06'0 0.0
2017-Sep-15 08:30N 39°13' E 009°06'0 0.0
2017-Sep-15 08:00N 39°13' E 009°06'0 0.0
2017-Sep-15 07:30N 39°13' E 009°06'0 0.0
2017-Sep-15 07:00N 39°13' E 009°06'0 0.0
2017-Sep-15 06:30N 39°13' E 009°06'0 0.0
2017-Sep-15 06:00N 39°13' E 009°06'0 0.2
2017-Sep-15 05:30N 39°13' E 009°06'3 5.2
2017-Sep-15 04:59N 39°10' E 009°06'5 9.9
2017-Sep-15 04:30N 39°06' E 009°09'612.7
2017-Sep-15 04:00N 39°03' E 009°17'714.7
2017-Sep-15 03:30N 38°59' E 009°24'610.9
2017-Sep-15 02:58N 38°55' E 009°31'510.7
2017-Sep-15 02:30N 38°54' E 009°37'611.0
2017-Sep-15 02:00N 38°53' E 009°44'511.1
2017-Sep-15 01:30N 38°52' E 009°51'611.1
2017-Sep-15 01:00N 38°51' E 009°58'4259.0
2017-Sep-15 01:00N 38°48' E 010°00'5 9.2 190 / 111014.010.8 23.018.325.0
2017-Sep-15 00:30N 38°50' E 010°05'711.4
2017-Sep-14 23:54N 38°49' E 010°14'611.1
2017-Sep-14 23:24N 38°48' E 010°21'513.0
2017-Sep-14 23:00N 38°47' E 010°27'9816.3
2017-Sep-14 17:01N 38°31' E 012°31'115.9
2017-Sep-14 16:57N 38°31' E 012°32'716.0
2017-Sep-14 16:30N 38°30' E 012°41'816.0
2017-Sep-14 16:00N 38°28' E 012°51'5352.0
2017-Sep-14 16:00N 38°24' E 012°48'1122.5 120 / 51016.610.8 24.017.625.0
2017-Sep-14 15:30N 38°27' E 013°01'816.2
2017-Sep-14 15:00N 38°27' E 013°12'816.1
2017-Sep-14 14:30N 38°27' E 013°22'816.2
2017-Sep-14 14:00N 38°26' E 013°32'816.2
2017-Sep-14 13:30N 38°24' E 013°42'816.3
2017-Sep-14 13:00N 38°22' E 013°52'816.5
2017-Sep-14 12:30N 38°21' E 014°03'916.7
2017-Sep-14 11:59N 38°20' E 014°14'816.5
2017-Sep-14 11:30N 38°19' E 014°24'816.1
2017-Sep-14 11:00N 38°18' E 014°34'816.6
2017-Sep-14 10:30N 38°18' E 014°44'816.2
2017-Sep-14 10:00N 38°18' E 014°55'815.9
2017-Sep-14 09:30N 38°19' E 015°05'816.4
2017-Sep-14 09:00N 38°20' E 015°15'816.0
2017-Sep-14 08:30N 38°21' E 015°25'815.5
2017-Sep-14 08:00N 38°20' E 015°35'714.3
2017-Sep-14 07:30N 38°17' E 015°43'713.8
2017-Sep-14 07:01N 38°12' E 015°37'713.7
2017-Sep-14 06:30N 38°06' E 015°37'714.4
2017-Sep-14 06:00N 37°58' E 015°37'714.9
2017-Sep-14 05:30N 37°52' E 015°42'612.3
2017-Sep-14 05:00N 37°48' E 015°48'6104.5 270 / 61019.310.8 23.016.522.0
2017-Sep-14 04:56N 37°52' E 015°53'20415.8
2017-Sep-13 16:00N 38°00' E 020°12'110 4.8 320 / 161019.510.8 25.018.825.0
2017-Sep-12 17:00N 39°48' E 019°42'185 7.7 190 / 51016.810.8 25.017.024.0
2017-Sep-11 17:00N 41°48' E 016°36'   140 / 30998.610.8 22.015.324.0

Dump ship's entire track history